Decoded Metar for KFME (FORT MEADE in MD, USA) (IATA:N/A) | Meteo·Mobile Aviation Weather
aviador You're here:

KFME Decoded Metar

FORT MEADE in MD, USA
Report Time2018-10-20 08:42:00
UTC Time2018-10-20 09:09:07
Flight Rules vfr VFR
Wind220° at 04 kt
W.Decomp.*RWY 28: 2.6 kt HW 3.1 kt LCW
W.Rank220° ranks 5
Current wind is below 220° avg. (6.2)
Visibility9999 m
Phenomena:N/A
Clouds:Scattered 055 Hf
Scattered 080 Hf
Broken 110 Hf
Expected CloudBase > 400 ft AGL from Temp-Dew spread
Ceiling11,000 ft
Temp12°C (ISA -3)
Dew Point11°C (94% RH)
AAT10.9°C
QNH1010 hPa
Density Alt108 ft
Elevation151 ft
Report Wrong Elevation
Raw Report
KFME 200842Z AUTO 22004KT 7SM SCT055 SCT080 BKN110 12/11 A2984 RMK
AO1=

Extra information for KFME:More info

Metar Taf Metar & Taf Last 4 Metars F.Rules Stats Wind Profile Meteogram Temp Stats Airport Information Weather charts Add Link Nearby VenuesMetar ALERT Operation Metar Decoded Social comments

AIRNAV info for KFME